This is the latest recevied weather packets stored in our database for station/object N7UV-WX. If no packets are shown the sender has not sent any weather packets the latest 10 day(s).
| Time | Temp. | Humidity | Pressure | Rain* | Wind** | Luminosity | Snow |
|---|---|---|---|---|---|---|---|
| 1777420519 | 27.22° C | 12% | 1011.3 hPa | 0 mm | - | 441 W/m² | - |
| 1777416939 | 27.22° C | 13% | 1011.8 hPa | 0 mm | - | 657 W/m² | - |
| 1777415719 | 27.78° C | 14% | 1012 hPa | 0 mm | - | 696 W/m² | - |
| 1777411520 | 26.67° C | 15% | 1013.2 hPa | 0 mm | - | 951 W/m² | - |
| 1777409748 | 26.11° C | 16% | 1013.5 hPa | 0 mm | - | 990 W/m² | - |
| 1777407335 | 25° C | 17% | 1013.8 hPa | 0 mm | - | 1058 W/m² | - |
| 1777406720 | 25° C | 17% | 1014 hPa | 0 mm | - | 1067 W/m² | - |
| 1777403135 | 23.89° C | 17% | 1014.6 hPa | 0 mm | - | 1060 W/m² | - |
| 1777401941 | 23.33° C | 19% | 1014.9 hPa | 0 mm | - | 1032 W/m² | - |
| 1777400160 | 23.33° C | 21% | 1015.1 hPa | 0 mm | - | 998 W/m² | - |
| 1777399523 | 22.78° C | 21% | 1015.2 hPa | 0 mm | - | 981 W/m² | - |
| 1777398320 | 22.22° C | 22% | 1015.4 hPa | 0 mm | - | 943 W/m² | - |
| 1777396535 | 21.67° C | 22% | 1015.2 hPa | 0 mm | - | 875 W/m² | - |
| 1777395924 | 21.67° C | 22% | 1015.4 hPa | 0 mm | - | 851 W/m² | - |
| 1777395379 | 21.11° C | 22% | 1015.4 hPa | 0 mm | - | 824 W/m² | - |
| 1777392335 | 20° C | 26% | 1015.3 hPa | 0 mm | - | 670 W/m² | - |
| 1777386320 | 16.67° C | 30% | 1014.5 hPa | 0 mm | - | 35 W/m² | - |
| 1777383319 | 16.67° C | 31% | 1014 hPa | 0 mm | - | 23 W/m² | - |
| 1777379719 | 17.22° C | 30% | 1013.3 hPa | 0 mm | - | 0 W/m² | - |
| 1777378519 | 16.67° C | 30% | 1012.9 hPa | 0 mm | - | 0 W/m² | - |
| 1777376719 | 17.22° C | 29% | 1012.7 hPa | 0 mm | - | 0 W/m² | - |
| 1777374919 | 17.22° C | 28% | 1012.6 hPa | 0 mm | - | 0 W/m² | - |
| 1777371354 | 17.78° C | 28% | 1012.7 hPa | 0 mm | - | 0 W/m² | - |
| 1777370119 | 17.78° C | 28% | 1012.5 hPa | 0 mm | - | 0 W/m² | - |
| 1777367119 | 18.33° C | 27% | 1012.7 hPa | 0 mm | - | 0 W/m² | - |
* Rain latest hour (hover to see other rain measurements)
** Current wind speed in m/s (hover to see current wind gust speed)